createdAt,value
2019-04-07T00:02:33.130Z,61.30
2019-04-07T00:05:13.723Z,61.05
2019-04-07T00:07:47.238Z,69.45
2019-04-07T00:10:27.150Z,69.87
2019-04-07T00:13:03.045Z,71.85
2019-04-07T00:15:38.987Z,69.10
2019-04-07T00:18:14.966Z,65.28
2019-04-07T00:20:50.810Z,61.73
2019-04-07T00:23:26.704Z,59.98
2019-04-07T00:26:02.824Z,56.18
2019-04-07T00:28:38.679Z,64.53
2019-04-07T00:31:15.667Z,61.42
2019-04-07T00:33:51.654Z,46.08
2019-04-07T00:36:27.891Z,43.85
2019-04-07T00:39:05.952Z,45.00
2019-04-07T00:41:41.849Z,46.37
2019-04-07T00:44:17.692Z,47.05
2019-04-07T00:46:54.043Z,51.00
2019-04-07T00:49:29.922Z,48.60
2019-04-07T00:52:07.419Z,48.02
2019-04-07T00:54:43.482Z,48.68
2019-04-07T00:57:19.874Z,45.17
2019-04-07T00:59:56.116Z,44.67
2019-04-07T01:02:32.285Z,45.58
2019-04-07T01:05:09.112Z,53.42
2019-04-07T01:07:45.215Z,54.50
2019-04-07T01:10:21.643Z,50.50
2019-04-07T01:12:57.627Z,50.25
2019-04-07T01:15:33.972Z,52.20
2019-04-07T01:18:10.008Z,52.53
2019-04-07T01:20:46.723Z,55.38
2019-04-07T01:23:23.495Z,54.83
2019-04-07T01:25:59.444Z,58.10
2019-04-07T01:28:35.424Z,57.13
2019-04-07T01:31:11.360Z,55.50
2019-04-07T01:33:47.786Z,55.15
2019-04-07T01:36:23.813Z,55.15
2019-04-07T01:39:00.026Z,55.95
2019-04-07T01:41:37.438Z,52.25
2019-04-07T01:44:18.055Z,55.75
2019-04-07T01:46:55.980Z,60.12
2019-04-07T01:49:33.855Z,57.25
2019-04-07T01:52:26.452Z,58.58
2019-04-07T01:55:12.977Z,58.73
2019-04-07T01:57:56.586Z,61.35
2019-04-07T02:00:40.395Z,58.05
2019-04-07T02:03:20.597Z,53.05
2019-04-07T02:06:01.634Z,57.27
2019-04-07T02:08:40.391Z,60.23
2019-04-07T02:11:24.039Z,57.55
2019-04-07T02:14:03.771Z,55.48
2019-04-07T02:16:41.165Z,54.67
2019-04-07T02:19:21.630Z,52.20
2019-04-07T02:22:04.952Z,51.63
2019-04-07T02:24:42.342Z,51.05
2019-04-07T02:27:25.685Z,50.03
2019-04-07T02:30:19.795Z,43.02
2019-04-07T02:33:06.461Z,42.70
2019-04-07T02:35:47.026Z,39.85
2019-04-07T02:38:24.515Z,43.08
2019-04-07T02:41:01.919Z,43.45
2019-04-07T02:43:51.714Z,43.50
2019-04-07T02:46:40.964Z,43.95
2019-04-07T02:49:21.662Z,42.88
2019-04-07T02:52:14.685Z,45.37
2019-04-07T02:55:01.088Z,42.98
2019-04-07T02:57:42.188Z,48.13
2019-04-07T03:00:20.467Z,44.33
2019-04-07T03:03:01.639Z,44.25
2019-04-07T03:05:45.586Z,42.58
2019-04-07T03:08:32.304Z,45.05
2019-04-07T03:11:29.067Z,49.75
2019-04-07T03:14:09.530Z,53.70
2019-04-07T03:16:52.819Z,47.90
2019-04-07T03:19:33.381Z,48.70
2019-04-07T03:22:13.462Z,50.23
2019-04-07T03:25:03.699Z,47.85
2019-04-07T03:27:56.014Z,48.38
2019-04-07T03:30:40.906Z,47.38
2019-04-07T03:33:21.751Z,46.75
2019-04-07T03:36:01.961Z,45.65
2019-04-07T03:38:42.919Z,45.88
2019-04-07T03:41:20.311Z,42.98
2019-04-07T03:43:59.284Z,41.77
2019-04-07T03:46:37.491Z,44.77
2019-04-07T03:49:20.908Z,46.42
2019-04-07T03:52:07.153Z,43.48
2019-04-07T03:55:01.332Z,42.00
2019-04-07T03:57:46.357Z,41.68
2019-04-07T04:01:11.061Z,41.07
2019-04-07T04:03:57.167Z,41.25
2019-04-07T04:06:47.234Z,44.70
2019-04-07T04:09:42.523Z,41.90
2019-04-07T04:12:21.125Z,41.80
2019-04-07T04:15:00.204Z,40.28
2019-04-07T04:17:37.029Z,39.92
2019-04-07T04:20:14.762Z,41.03
2019-04-07T04:22:50.836Z,39.13
2019-04-07T04:25:27.430Z,40.28
2019-04-07T04:28:04.738Z,40.95
2019-04-07T04:30:41.972Z,40.98
2019-04-07T04:33:18.114Z,39.48
2019-04-07T04:35:54.009Z,38.63
2019-04-07T04:38:30.056Z,40.92
2019-04-07T04:41:06.866Z,49.38
2019-04-07T04:43:42.733Z,45.20
2019-04-07T04:46:18.710Z,42.05
2019-04-07T04:48:55.433Z,43.28
2019-04-07T04:51:36.317Z,42.05
2019-04-07T04:54:08.835Z,43.70
2019-04-07T04:56:44.888Z,45.00
2019-04-07T04:59:21.651Z,41.37
2019-04-07T05:01:57.535Z,41.35
2019-04-07T05:04:34.090Z,42.45
2019-04-07T05:07:10.179Z,41.77
2019-04-07T05:09:51.204Z,42.13
2019-04-07T05:12:24.352Z,43.52
2019-04-07T05:15:00.381Z,45.90
2019-04-07T05:17:36.899Z,46.58
2019-04-07T05:20:13.542Z,45.27
2019-04-07T05:22:49.516Z,44.88
2019-04-07T05:25:25.262Z,44.88
2019-04-07T05:28:01.207Z,43.48
2019-04-07T05:30:37.944Z,43.23
2019-04-07T05:33:14.130Z,43.63
2019-04-07T05:35:50.343Z,54.93
2019-04-07T05:38:26.515Z,49.80
2019-04-07T05:41:02.964Z,43.92
2019-04-07T05:43:38.748Z,43.80
2019-04-07T05:46:14.989Z,45.55
2019-04-07T05:48:52.611Z,43.20
2019-04-07T05:51:30.096Z,44.35
2019-04-07T05:54:07.153Z,43.92
2019-04-07T05:56:43.725Z,45.52
2019-04-07T05:59:19.915Z,47.15
2019-04-07T06:02:01.253Z,43.02
2019-04-07T06:04:33.844Z,45.35
2019-04-07T06:07:10.232Z,42.25
2019-04-07T06:09:50.082Z,42.88
2019-04-07T06:12:23.706Z,41.70
2019-04-07T06:14:59.633Z,43.13
2019-04-07T06:17:35.799Z,43.58
2019-04-07T06:20:15.034Z,43.02
2019-04-07T06:22:52.704Z,41.20
2019-04-07T06:25:27.334Z,42.10
2019-04-07T06:28:03.357Z,40.38
2019-04-07T06:30:39.524Z,40.10
2019-04-07T06:33:15.624Z,42.00
2019-04-07T06:35:54.948Z,45.00
2019-04-07T06:38:34.218Z,44.15
2019-04-07T06:41:08.212Z,43.95
2019-04-07T06:43:44.167Z,44.88
2019-04-07T06:46:27.599Z,43.28
2019-04-07T06:49:18.444Z,46.75
2019-04-07T06:51:55.780Z,43.23
2019-04-07T06:54:50.075Z,42.48
2019-04-07T06:57:35.146Z,44.08
2019-04-07T07:00:25.711Z,43.23
2019-04-07T07:03:07.531Z,42.78
2019-04-07T07:05:51.501Z,45.73
2019-04-07T07:08:47.454Z,44.20
2019-04-07T07:11:44.100Z,47.85
2019-04-07T07:14:32.932Z,44.35
2019-04-07T07:17:07.499Z,45.03
2019-04-07T07:20:03.588Z,44.37
2019-04-07T07:22:47.897Z,46.70
2019-04-07T07:25:23.739Z,45.33
2019-04-07T07:27:59.996Z,45.28
2019-04-07T07:30:35.965Z,45.55
2019-04-07T07:33:13.588Z,46.37
2019-04-07T07:35:49.486Z,44.83
2019-04-07T07:38:27.006Z,45.83
2019-04-07T07:41:04.477Z,43.45
2019-04-07T07:43:41.422Z,44.45
2019-04-07T07:46:20.565Z,44.93
2019-04-07T07:48:58.788Z,45.10
2019-04-07T07:51:32.482Z,43.75
2019-04-07T07:54:09.947Z,43.92
2019-04-07T07:56:49.391Z,44.95
2019-04-07T07:59:24.129Z,45.15
2019-04-07T08:02:00.041Z,45.48
2019-04-07T08:04:36.575Z,45.17
2019-04-07T08:07:15.258Z,45.35
2019-04-07T08:09:53.791Z,46.45
2019-04-07T08:12:28.130Z,48.65
2019-04-07T08:15:04.958Z,45.85
2019-04-07T08:17:40.987Z,45.65
2019-04-07T08:20:18.594Z,48.23
2019-04-07T08:22:54.958Z,45.08
2019-04-07T08:25:31.013Z,46.00
2019-04-07T08:28:08.192Z,45.80
2019-04-07T08:30:47.501Z,45.78
2019-04-07T08:33:22.580Z,45.17
2019-04-07T08:35:58.938Z,40.05
2019-04-07T08:38:35.396Z,40.70
2019-04-07T08:41:12.465Z,42.33
2019-04-07T08:43:53.222Z,41.48
2019-04-07T08:46:30.666Z,40.78
2019-04-07T08:49:05.503Z,40.38
2019-04-07T08:51:41.741Z,38.70
2019-04-07T08:54:18.436Z,40.45
2019-04-07T08:56:56.895Z,37.63
2019-04-07T08:59:32.486Z,36.93
2019-04-07T09:02:08.672Z,38.70
2019-04-07T09:04:49.757Z,36.70
2019-04-07T09:07:23.629Z,36.58
2019-04-07T09:09:59.884Z,36.20
2019-04-07T09:12:36.066Z,34.43
2019-04-07T09:15:13.719Z,33.63
2019-04-07T09:17:51.157Z,33.83
2019-04-07T09:20:29.219Z,32.90
2019-04-07T09:23:07.111Z,32.10
2019-04-07T09:25:44.823Z,34.90
2019-04-07T09:28:38.907Z,33.60
2019-04-07T09:31:19.644Z,35.68
2019-04-07T09:34:00.121Z,35.33
2019-04-07T09:36:40.740Z,31.95
2019-04-07T09:39:33.995Z,33.02
2019-04-07T09:42:14.897Z,31.97
2019-04-07T09:45:10.775Z,32.08
2019-04-07T09:47:48.684Z,32.42
2019-04-07T09:50:35.374Z,33.13
2019-04-07T09:53:29.078Z,31.93
2019-04-07T09:56:08.869Z,33.23
2019-04-07T09:58:58.242Z,32.83
2019-04-07T10:01:47.592Z,31.82
2019-04-07T10:04:25.648Z,31.85
2019-04-07T10:07:03.656Z,32.17
2019-04-07T10:09:50.207Z,28.67
2019-04-07T10:12:29.932Z,28.95
2019-04-07T10:15:23.280Z,28.42
2019-04-07T10:18:06.724Z,27.70
2019-04-07T10:20:59.755Z,27.77
2019-04-07T10:23:37.538Z,26.62
2019-04-07T10:26:21.002Z,25.70
2019-04-07T10:29:04.608Z,23.42
2019-04-07T10:31:49.326Z,30.62
2019-04-07T10:34:37.483Z,30.72
2019-04-07T10:37:24.410Z,32.10
2019-04-07T10:40:03.148Z,29.35
2019-04-07T10:42:50.194Z,30.15
2019-04-07T10:45:45.964Z,30.75
2019-04-07T10:48:35.435Z,30.75
2019-04-07T10:51:29.321Z,31.65
2019-04-07T10:54:22.186Z,33.55
2019-04-07T10:56:59.889Z,31.97
2019-04-07T10:59:40.427Z,33.85
2019-04-07T11:02:27.546Z,33.42
2019-04-07T11:05:10.710Z,33.50
2019-04-07T11:07:48.305Z,32.00
2019-04-07T11:10:39.367Z,31.90
2019-04-07T11:13:20.926Z,35.20
2019-04-07T11:16:03.894Z,33.67
2019-04-07T11:18:47.244Z,32.03
2019-04-07T11:21:33.865Z,31.73
2019-04-07T11:24:14.167Z,31.37
2019-04-07T11:27:03.515Z,33.60
2019-04-07T11:29:43.867Z,33.35
2019-04-07T11:32:30.476Z,29.90
2019-04-07T11:35:17.624Z,27.52
2019-04-07T11:38:06.882Z,25.80
2019-04-07T11:41:00.435Z,28.00
2019-04-07T11:43:54.551Z,26.68
2019-04-07T11:46:31.964Z,26.95
2019-04-07T11:49:16.055Z,26.82
2019-04-07T11:51:53.607Z,27.80
2019-04-07T11:54:47.881Z,27.55
2019-04-07T11:57:31.233Z,28.98
2019-04-07T12:00:22.597Z,26.68
2019-04-07T12:03:00.831Z,26.60
2019-04-07T12:05:38.137Z,27.65
2019-04-07T12:08:18.608Z,27.05
2019-04-07T12:11:07.856Z,26.05
2019-04-07T12:14:01.202Z,25.50
2019-04-07T12:16:39.098Z,25.55
2019-04-07T12:19:26.156Z,24.80
2019-04-07T12:22:14.116Z,24.25
2019-04-07T12:25:07.860Z,23.80
2019-04-07T12:27:46.231Z,25.90
2019-04-07T12:30:28.405Z,24.97
2019-04-07T12:33:09.885Z,24.65
2019-04-07T12:36:03.501Z,25.68
2019-04-07T12:38:43.245Z,25.97
2019-04-07T12:41:22.101Z,26.95
2019-04-07T12:44:08.035Z,26.23
2019-04-07T12:46:48.403Z,25.32
2019-04-07T12:49:25.869Z,28.00
2019-04-07T12:52:18.159Z,27.62
2019-04-07T12:55:15.392Z,28.52
2019-04-07T12:57:50.585Z,27.75
2019-04-07T13:00:52.873Z,26.48
2019-04-07T13:03:32.209Z,27.62
2019-04-07T13:06:25.567Z,27.17
2019-04-07T13:09:15.114Z,27.85
2019-04-07T13:11:55.904Z,27.40
2019-04-07T13:14:51.238Z,27.27
2019-04-07T13:17:37.568Z,27.42
2019-04-07T13:20:18.081Z,26.70
2019-04-07T13:23:09.773Z,26.73
2019-04-07T13:25:47.410Z,25.32
2019-04-07T13:28:27.875Z,26.07
2019-04-07T13:31:11.314Z,27.90
2019-04-07T13:34:04.298Z,29.65
2019-04-07T13:36:45.153Z,28.23
2019-04-07T13:39:35.937Z,28.07
2019-04-07T13:42:20.797Z,29.32
2019-04-07T13:45:04.526Z,27.67
2019-04-07T13:48:00.324Z,27.70
2019-04-07T13:50:38.261Z,29.10
2019-04-07T13:53:26.334Z,28.73
2019-04-07T13:56:19.456Z,28.40
2019-04-07T13:59:05.979Z,27.40
2019-04-07T14:01:45.115Z,27.95
2019-04-07T14:04:22.641Z,27.90
2019-04-07T14:07:00.013Z,28.23
2019-04-07T14:09:37.558Z,28.92
2019-04-07T14:12:15.476Z,27.90
2019-04-07T14:15:09.372Z,27.52
2019-04-07T14:17:47.023Z,27.62
2019-04-07T14:20:33.523Z,29.23
2019-04-07T14:23:11.044Z,27.95
2019-04-07T14:25:52.944Z,28.45
2019-04-07T14:31:07.587Z,27.42
2019-04-07T14:33:45.018Z,29.35
2019-04-07T14:36:28.443Z,35.50
2019-04-07T14:39:23.116Z,32.42
2019-04-07T14:42:17.614Z,29.15
2019-04-07T14:44:55.560Z,29.45
2019-04-07T14:47:36.074Z,28.67
2019-04-07T14:50:32.090Z,29.60
2019-04-07T14:53:09.761Z,29.15
2019-04-07T14:55:53.428Z,28.12
2019-04-07T14:58:36.986Z,30.17
2019-04-07T15:01:30.743Z,28.47
2019-04-07T15:04:06.695Z,27.22
2019-04-07T15:06:42.541Z,27.95
2019-04-07T15:09:23.986Z,28.87
2019-04-07T15:12:02.784Z,27.42
2019-04-07T15:14:38.927Z,29.92
2019-04-07T15:17:14.726Z,29.37
2019-04-07T15:19:51.332Z,29.15
2019-04-07T15:22:29.950Z,27.10
2019-04-07T15:25:07.188Z,28.60
2019-04-07T15:27:42.635Z,27.95
2019-04-07T15:30:18.515Z,27.52
2019-04-07T15:32:57.851Z,27.17
2019-04-07T15:35:31.757Z,27.45
2019-04-07T15:38:07.599Z,27.22
2019-04-07T15:40:44.012Z,28.47
2019-04-07T15:43:21.152Z,27.70
2019-04-07T15:45:57.202Z,28.20
2019-04-07T15:48:34.011Z,30.20
2019-04-07T15:51:09.816Z,28.77
2019-04-07T15:53:50.353Z,26.75
2019-04-07T15:56:23.968Z,29.67
2019-04-07T15:59:02.005Z,26.50
2019-04-07T16:01:39.401Z,28.47
2019-04-07T16:04:15.998Z,28.95
2019-04-07T16:06:52.621Z,30.08
2019-04-07T16:09:36.457Z,28.73
2019-04-07T16:12:06.549Z,29.40
2019-04-07T16:14:46.484Z,33.20
2019-04-07T16:17:21.116Z,32.33
2019-04-07T16:19:57.015Z,31.05
2019-04-07T16:22:33.554Z,32.10
2019-04-07T16:25:11.254Z,32.15
2019-04-07T16:27:47.647Z,34.75
2019-04-07T16:30:23.654Z,33.38
2019-04-07T16:33:01.886Z,33.40
2019-04-07T16:35:36.902Z,31.30
2019-04-07T16:38:13.006Z,31.55
2019-04-07T16:40:50.192Z,32.20
2019-04-07T16:43:26.237Z,34.27
2019-04-07T16:46:02.084Z,33.53
2019-04-07T16:48:40.139Z,34.90
2019-04-07T16:51:15.908Z,33.95
2019-04-07T16:53:54.231Z,33.30
2019-04-07T16:56:30.119Z,33.55
2019-04-07T16:59:08.454Z,36.80
2019-04-07T17:01:43.603Z,36.28
2019-04-07T17:04:20.134Z,35.05
2019-04-07T17:07:03.296Z,38.15
2019-04-07T17:09:35.424Z,36.42
2019-04-07T17:12:12.383Z,43.73
2019-04-07T17:14:49.135Z,44.35
2019-04-07T17:17:26.014Z,53.78
2019-04-07T17:20:01.839Z,67.78
2019-04-07T17:22:37.680Z,89.15
2019-04-07T17:25:14.209Z,66.77
2019-04-07T17:27:50.828Z,67.90
2019-04-07T17:30:28.080Z,56.90
2019-04-07T17:33:05.209Z,49.73
2019-04-07T17:35:44.240Z,46.42
2019-04-07T17:38:21.438Z,45.90
2019-04-07T17:40:57.962Z,46.08
2019-04-07T17:43:51.391Z,45.90
2019-04-07T17:46:26.450Z,47.58
2019-04-07T17:49:04.523Z,48.52
2019-04-07T17:51:42.199Z,56.58
2019-04-07T17:54:23.005Z,58.13
2019-04-07T17:57:12.500Z,68.05
2019-04-07T17:59:50.399Z,81.25
2019-04-07T18:02:34.925Z,90.00
2019-04-07T18:05:15.250Z,85.28
2019-04-07T18:07:52.701Z,80.92
2019-04-07T18:10:30.681Z,73.60
2019-04-07T18:13:22.685Z,72.08
2019-04-07T18:16:06.325Z,63.87
2019-04-07T18:18:44.340Z,89.32
2019-04-07T18:21:39.722Z,132.47
2019-04-07T18:24:18.168Z,171.40
2019-04-07T18:26:55.523Z,265.52
2019-04-07T18:29:36.351Z,135.85
2019-04-07T18:32:14.496Z,109.00
2019-04-07T18:34:52.756Z,94.67
2019-04-07T18:37:31.138Z,77.58
2019-04-07T18:40:27.373Z,79.32
2019-04-07T18:43:20.227Z,73.87
2019-04-07T18:46:01.134Z,75.20
2019-04-07T18:48:50.391Z,80.92
2019-04-07T18:51:47.065Z,85.00
2019-04-07T18:54:22.903Z,82.35
2019-04-07T18:57:10.488Z,80.05
2019-04-07T18:59:59.420Z,91.22
2019-04-07T19:02:34.340Z,129.65
2019-04-07T19:05:23.753Z,83.62
2019-04-07T19:08:19.204Z,78.42
2019-04-07T19:11:12.318Z,76.82
2019-04-07T19:14:14.264Z,80.53
2019-04-07T19:16:49.965Z,107.20
2019-04-07T19:19:42.022Z,142.68
2019-04-07T19:22:28.326Z,111.30
2019-04-07T19:25:12.732Z,95.67
2019-04-07T19:28:04.473Z,104.23
2019-04-07T19:30:51.171Z,107.50
2019-04-07T19:33:35.603Z,117.93
2019-04-07T19:36:31.183Z,125.62
2019-04-07T19:39:11.652Z,123.35
2019-04-07T19:41:51.795Z,117.10
2019-04-07T19:44:39.325Z,121.30
2019-04-07T19:47:20.628Z,112.03
2019-04-07T19:50:05.159Z,106.35
2019-04-07T19:52:51.467Z,92.37
2019-04-07T19:55:38.817Z,84.00
2019-04-07T19:58:38.082Z,79.92
2019-04-07T20:01:20.758Z,135.18
2019-04-07T20:04:04.132Z,93.52
2019-04-07T20:06:59.548Z,80.22
2019-04-07T20:09:45.174Z,94.17
2019-04-07T20:12:22.117Z,136.47
2019-04-07T20:15:06.601Z,152.57
2019-04-07T20:17:55.068Z,124.70
2019-04-07T20:20:49.310Z,75.90
2019-04-07T20:23:35.910Z,71.00
2019-04-07T20:26:22.145Z,81.70
2019-04-07T20:29:04.970Z,83.87
2019-04-07T20:31:47.233Z,70.52
2019-04-07T20:34:25.277Z,66.00
2019-04-07T20:37:02.831Z,62.48
2019-04-07T20:39:58.040Z,60.83
2019-04-07T20:42:36.675Z,62.15
2019-04-07T20:45:18.589Z,61.23
2019-04-07T20:48:12.099Z,59.75
2019-04-07T20:51:05.901Z,58.98
2019-04-07T20:53:43.387Z,56.92
2019-04-07T20:56:37.287Z,56.60
2019-04-07T20:59:18.270Z,58.75
2019-04-07T21:02:07.089Z,58.47
2019-04-07T21:04:41.731Z,56.92
2019-04-07T21:07:31.366Z,56.98
2019-04-07T21:10:18.992Z,59.75
2019-04-07T21:13:00.258Z,63.02
2019-04-07T21:15:43.538Z,77.95
2019-04-07T21:18:24.097Z,73.97
2019-04-07T21:21:01.699Z,68.53
2019-04-07T21:23:39.332Z,74.40
2019-04-07T21:26:17.555Z,74.82
2019-04-07T21:28:58.831Z,74.53
2019-04-07T21:31:39.740Z,77.25
2019-04-07T21:34:17.085Z,84.45
2019-04-07T21:36:54.630Z,95.85
2019-04-07T21:39:48.549Z,134.52
2019-04-07T21:42:35.860Z,97.90
2019-04-07T21:45:32.382Z,77.97
2019-04-07T21:48:05.383Z,72.05
2019-04-07T21:50:48.784Z,73.40
2019-04-07T21:53:29.125Z,64.30
2019-04-07T21:56:10.536Z,72.30
2019-04-07T21:59:04.328Z,78.02
2019-04-07T22:01:59.285Z,74.62
2019-04-07T22:04:55.683Z,74.10
2019-04-07T22:07:35.512Z,73.20
2019-04-07T22:10:13.713Z,71.23
2019-04-07T22:12:49.815Z,69.90
2019-04-07T22:15:26.692Z,70.40
2019-04-07T22:18:07.504Z,70.90
2019-04-07T22:20:40.501Z,71.70
2019-04-07T22:23:16.687Z,70.15
2019-04-07T22:25:53.926Z,71.07
2019-04-07T22:28:30.358Z,70.67
2019-04-07T22:31:08.890Z,67.03
2019-04-07T22:33:45.096Z,68.42
2019-04-07T22:36:20.886Z,68.22
2019-04-07T22:38:59.740Z,64.40
2019-04-07T22:41:34.390Z,65.20
2019-04-07T22:44:11.273Z,66.30
2019-04-07T22:46:49.525Z,65.52
2019-04-07T22:49:28.537Z,62.10
2019-04-07T22:52:03.412Z,59.27
2019-04-07T22:54:40.663Z,59.05
2019-04-07T22:57:17.659Z,64.65
2019-04-07T22:59:54.425Z,62.73
2019-04-07T23:02:30.436Z,67.58
2019-04-07T23:05:07.216Z,76.50
2019-04-07T23:07:43.822Z,68.40
2019-04-07T23:10:19.806Z,63.85
2019-04-07T23:12:55.809Z,63.73
2019-04-07T23:15:41.027Z,63.58
2019-04-07T23:18:09.256Z,61.30
2019-04-07T23:20:45.953Z,61.08
2019-04-07T23:23:21.833Z,62.75
2019-04-07T23:25:57.834Z,60.20
2019-04-07T23:28:34.729Z,59.63
2019-04-07T23:31:11.652Z,59.83
2019-04-07T23:33:47.554Z,61.23
2019-04-07T23:36:24.237Z,67.90
2019-04-07T23:39:00.291Z,64.27
2019-04-07T23:41:37.102Z,63.55
2019-04-07T23:44:13.147Z,65.37
2019-04-07T23:46:48.991Z,65.08
2019-04-07T23:49:25.909Z,66.05
2019-04-07T23:52:02.730Z,66.50
2019-04-07T23:54:39.718Z,65.90
2019-04-07T23:57:15.661Z,65.03
2019-04-07T23:59:51.511Z,62.50
